createdAt,value
2022-12-27T00:04:24.647Z,10.70
2022-12-27T00:09:30.430Z,13.38
2022-12-27T00:14:34.934Z,79.13
2022-12-27T00:19:39.265Z,30.88
2022-12-27T00:24:48.102Z,36.38
2022-12-27T00:29:52.453Z,42.38
2022-12-27T00:34:57.009Z,24.35
2022-12-27T00:40:02.887Z,16.00
2022-12-27T00:45:08.793Z,18.88
2022-12-27T00:50:13.184Z,18.20
2022-12-27T00:55:20.115Z,17.88
2022-12-27T01:00:24.757Z,20.67
2022-12-27T01:05:31.542Z,23.20
2022-12-27T01:10:37.308Z,15.43
2022-12-27T01:15:43.452Z,15.15
2022-12-27T01:20:49.519Z,13.27
2022-12-27T01:26:02.317Z,16.92
2022-12-27T01:31:07.720Z,14.68
2022-12-27T01:36:14.264Z,12.63
2022-12-27T01:41:39.903Z,10.75
2022-12-27T01:46:44.209Z,9.77
2022-12-27T01:51:48.684Z,12.80
2022-12-27T02:02:01.431Z,13.13
2022-12-27T02:07:08.585Z,15.60
2022-12-27T02:12:15.403Z,15.82
2022-12-27T02:17:24.073Z,10.95
2022-12-27T02:23:12.692Z,10.02
2022-12-27T02:28:36.437Z,11.95
2022-12-27T02:33:48.085Z,17.45
2022-12-27T02:38:57.525Z,14.65
2022-12-27T02:44:19.250Z,14.25
2022-12-27T02:49:44.522Z,12.98
2022-12-27T02:55:06.025Z,11.07
2022-12-27T03:00:31.826Z,11.88
2022-12-27T03:06:09.116Z,16.33
2022-12-27T03:11:30.833Z,16.52
2022-12-27T03:16:42.848Z,13.32
2022-12-27T03:22:08.955Z,15.55
2022-12-27T03:27:18.322Z,8.45
2022-12-27T03:32:42.641Z,14.13
2022-12-27T03:38:05.666Z,14.05
2022-12-27T03:43:15.127Z,12.30
2022-12-27T03:48:25.222Z,11.18
2022-12-27T03:53:35.624Z,15.95
2022-12-27T03:58:39.879Z,14.10
2022-12-27T04:03:46.442Z,11.43
2022-12-27T04:09:12.802Z,13.02
2022-12-27T04:14:35.444Z,10.82
2022-12-27T04:19:57.245Z,12.85
2022-12-27T04:25:20.006Z,9.23
2022-12-27T04:30:41.544Z,9.90
2022-12-27T04:35:48.120Z,9.88
2022-12-27T04:41:14.120Z,9.63
2022-12-27T04:46:41.195Z,9.13
2022-12-27T04:52:02.660Z,7.80
2022-12-27T04:57:08.812Z,12.15
2022-12-27T05:02:13.703Z,31.88
2022-12-27T05:07:50.263Z,43.40
2022-12-27T05:13:15.350Z,15.52
2022-12-27T05:18:22.716Z,14.30
2022-12-27T05:23:46.819Z,17.55
2022-12-27T05:28:57.244Z,11.50
2022-12-27T05:34:04.904Z,17.65
2022-12-27T05:39:12.386Z,19.38
2022-12-27T05:44:21.343Z,8.82
2022-12-27T05:49:26.874Z,5.90
2022-12-27T05:54:31.204Z,8.18
2022-12-27T05:59:37.158Z,8.60
2022-12-27T06:04:41.430Z,22.40
2022-12-27T06:09:45.809Z,10.63
2022-12-27T06:14:51.605Z,15.43
2022-12-27T06:19:57.428Z,6.97
2022-12-27T06:25:03.611Z,11.27
2022-12-27T06:30:13.922Z,5.63
2022-12-27T06:35:21.804Z,9.02
2022-12-27T06:40:29.251Z,14.65
2022-12-27T06:45:37.307Z,5.93
2022-12-27T06:50:41.745Z,3.70
2022-12-27T06:55:45.999Z,2.28
2022-12-27T07:00:51.848Z,3.22
2022-12-27T07:05:56.188Z,2.47
2022-12-27T07:11:02.048Z,2.88
2022-12-27T07:16:09.443Z,3.10
2022-12-27T07:21:16.902Z,4.22
2022-12-27T07:26:24.573Z,3.38
2022-12-27T07:31:32.366Z,8.57
2022-12-27T07:36:40.277Z,3.35
2022-12-27T07:41:44.621Z,1.75
2022-12-27T07:46:52.513Z,2.40
2022-12-27T07:51:57.040Z,2.03
2022-12-27T07:57:01.526Z,2.03
2022-12-27T08:02:10.405Z,3.55
2022-12-27T08:07:17.874Z,4.28
2022-12-27T08:12:22.347Z,2.30
2022-12-27T08:17:29.145Z,6.93
2022-12-27T08:22:33.554Z,7.80
2022-12-27T08:27:37.869Z,7.53
2022-12-27T08:32:43.969Z,11.90
2022-12-27T08:37:48.396Z,12.32
2022-12-27T08:42:52.906Z,8.10
2022-12-27T08:48:02.354Z,8.18
2022-12-27T08:53:07.083Z,8.73
2022-12-27T08:58:16.162Z,12.95
2022-12-27T09:03:23.038Z,11.73
2022-12-27T09:08:27.495Z,13.43
2022-12-27T09:13:32.226Z,5.53
2022-12-27T09:18:38.241Z,9.45
2022-12-27T09:23:43.247Z,5.85
2022-12-27T09:28:48.056Z,7.97
2022-12-27T09:33:54.467Z,4.95
2022-12-27T09:39:00.478Z,9.05
2022-12-27T09:44:09.758Z,9.43
2022-12-27T09:49:19.680Z,14.63
2022-12-27T09:54:31.207Z,15.45
2022-12-27T09:59:40.699Z,10.20
2022-12-27T10:05:18.380Z,12.02
2022-12-27T10:15:29.909Z,10.23
2022-12-27T10:20:57.686Z,18.23
2022-12-27T10:26:06.505Z,12.02
2022-12-27T10:31:16.643Z,13.80
2022-12-27T10:36:26.142Z,11.63
2022-12-27T10:41:50.424Z,14.82
2022-12-27T10:46:57.491Z,15.53
2022-12-27T10:52:11.447Z,11.30
2022-12-27T10:57:27.055Z,15.15
2022-12-27T11:02:31.542Z,12.85
2022-12-27T11:07:39.049Z,11.87
2022-12-27T11:12:56.505Z,13.23
2022-12-27T11:18:03.583Z,15.02
2022-12-27T11:23:15.059Z,10.05
2022-12-27T11:28:24.151Z,21.52
2022-12-27T11:33:40.020Z,13.30
2022-12-27T11:38:48.135Z,8.65
2022-12-27T11:43:55.821Z,12.20
2022-12-27T11:49:00.834Z,10.00
2022-12-27T11:54:30.966Z,8.88
2022-12-27T11:59:47.937Z,9.50
2022-12-27T12:05:41.857Z,9.95
2022-12-27T12:10:55.032Z,9.52
2022-12-27T12:16:37.671Z,12.18
2022-12-27T12:21:58.787Z,9.00
2022-12-27T12:27:29.250Z,19.20
2022-12-27T12:32:55.097Z,21.65
2022-12-27T12:38:06.357Z,10.30
2022-12-27T12:43:25.455Z,11.00
2022-12-27T12:49:01.675Z,11.70
2022-12-27T12:54:18.868Z,11.52
2022-12-27T12:59:41.656Z,10.20
2022-12-27T13:05:04.490Z,8.70
2022-12-27T13:10:45.890Z,13.82
2022-12-27T13:16:13.183Z,34.25
2022-12-27T13:21:29.862Z,11.63
2022-12-27T13:26:43.782Z,15.05
2022-12-27T13:31:58.213Z,14.35
2022-12-27T13:37:15.629Z,11.88
2022-12-27T13:43:00.794Z,10.82
2022-12-27T13:48:24.353Z,17.25
2022-12-27T13:54:08.144Z,11.40
2022-12-27T13:59:37.968Z,11.30
2022-12-27T14:04:59.758Z,26.73
2022-12-27T14:10:14.740Z,16.25
2022-12-27T14:15:23.546Z,16.10
2022-12-27T14:20:44.406Z,13.13
2022-12-27T14:26:30.646Z,17.85
2022-12-27T14:32:06.902Z,12.10
2022-12-27T14:38:01.356Z,24.55
2022-12-27T14:43:39.125Z,26.50
2022-12-27T14:49:14.351Z,25.67
2022-12-27T14:54:49.293Z,18.05
2022-12-27T15:00:03.930Z,16.38
2022-12-27T15:05:25.002Z,17.05
2022-12-27T15:10:48.292Z,19.15
2022-12-27T15:16:02.361Z,12.38
2022-12-27T15:21:21.716Z,14.32
2022-12-27T15:26:38.746Z,20.17
2022-12-27T15:31:54.660Z,15.77
2022-12-27T15:37:02.539Z,18.70
2022-12-27T15:42:36.479Z,16.10
2022-12-27T15:48:09.482Z,15.77
2022-12-27T15:53:48.543Z,23.70
2022-12-27T15:59:29.948Z,25.02
2022-12-27T16:04:49.507Z,25.67
2022-12-27T16:09:55.966Z,28.95
2022-12-27T16:15:40.103Z,29.23
2022-12-27T16:20:56.995Z,33.05
2022-12-27T16:26:07.173Z,29.35
2022-12-27T16:31:13.791Z,20.77
2022-12-27T16:36:22.946Z,23.77
2022-12-27T16:41:44.658Z,30.75
2022-12-27T16:47:08.976Z,28.92
2022-12-27T16:52:35.674Z,26.20
2022-12-27T16:57:44.295Z,31.00
2022-12-27T17:02:51.899Z,33.08
2022-12-27T17:08:17.093Z,22.95
2022-12-27T17:13:34.603Z,23.60
2022-12-27T17:18:47.050Z,17.88
2022-12-27T17:23:52.641Z,14.57
2022-12-27T17:29:07.877Z,17.35
2022-12-27T17:34:21.795Z,15.30
2022-12-27T17:39:50.477Z,19.60
2022-12-27T17:45:14.390Z,14.82
2022-12-27T17:50:23.984Z,41.05
2022-12-27T17:55:47.790Z,25.10
2022-12-27T18:00:58.481Z,41.22
2022-12-27T18:06:03.469Z,40.17
2022-12-27T18:11:10.408Z,39.07
2022-12-27T18:16:20.089Z,53.05
2022-12-27T18:21:26.577Z,34.85
2022-12-27T18:26:37.903Z,36.28
2022-12-27T18:31:49.909Z,29.50
2022-12-27T18:37:02.044Z,36.47
2022-12-27T18:42:20.089Z,26.77
2022-12-27T18:47:28.353Z,27.90
2022-12-27T18:52:35.350Z,42.08
2022-12-27T18:57:39.718Z,26.40
2022-12-27T19:02:46.333Z,32.15
2022-12-27T19:07:55.555Z,14.82
2022-12-27T19:13:04.342Z,22.63
2022-12-27T19:18:23.395Z,19.08
2022-12-27T19:23:34.011Z,18.63
2022-12-27T19:28:38.554Z,15.75
2022-12-27T19:33:46.982Z,18.58
2022-12-27T19:38:51.640Z,27.77
2022-12-27T19:43:56.652Z,17.40
2022-12-27T19:54:26.792Z,42.58
2022-12-27T19:59:31.295Z,56.03
2022-12-27T20:04:37.108Z,31.10
2022-12-27T20:14:45.945Z,22.00
2022-12-27T20:19:53.555Z,22.13
2022-12-27T20:24:58.214Z,37.08
2022-12-27T20:30:02.758Z,18.02
2022-12-27T20:35:09.970Z,19.95
2022-12-27T20:40:16.308Z,17.98
2022-12-27T20:45:21.500Z,28.73
2022-12-27T20:50:27.625Z,20.77
2022-12-27T21:00:41.206Z,17.33
2022-12-27T21:05:48.372Z,15.35
2022-12-27T21:10:52.858Z,13.65
2022-12-27T21:15:57.753Z,14.47
2022-12-27T21:21:04.326Z,14.27
2022-12-27T21:26:30.249Z,14.10
2022-12-27T21:31:35.028Z,17.80
2022-12-27T21:36:41.531Z,17.60
2022-12-27T21:41:46.583Z,18.42
2022-12-27T21:46:51.294Z,24.60
2022-12-27T21:51:57.393Z,22.13
2022-12-27T21:57:01.804Z,18.80
2022-12-27T22:02:06.425Z,21.95
2022-12-27T22:07:13.670Z,13.52
2022-12-27T22:12:18.157Z,17.67
2022-12-27T22:17:24.009Z,21.20
2022-12-27T22:22:29.984Z,26.13
2022-12-27T22:27:34.528Z,16.75
2022-12-27T22:32:39.009Z,31.23
2022-12-27T22:37:45.073Z,26.88
2022-12-27T22:42:50.893Z,17.33
2022-12-27T22:53:01.303Z,15.73
2022-12-27T22:58:05.806Z,15.75
2022-12-27T23:03:11.273Z,26.08
2022-12-27T23:08:17.359Z,39.80
2022-12-27T23:13:24.104Z,35.95
2022-12-27T23:18:29.583Z,26.75
2022-12-27T23:23:35.703Z,22.13
2022-12-27T23:28:41.867Z,20.70
2022-12-27T23:33:46.371Z,16.73
2022-12-27T23:38:55.443Z,17.10
2022-12-27T23:44:02.133Z,12.70
2022-12-27T23:49:06.804Z,14.57
2022-12-27T23:54:12.809Z,14.25
2022-12-27T23:59:18.102Z,30.02
